createdAt,value
2019-05-01T00:03:50.151Z,15.63
2019-05-01T00:08:53.540Z,15.48
2019-05-01T00:13:56.529Z,14.83
2019-05-01T00:18:59.515Z,14.23
2019-05-01T00:24:02.525Z,13.75
2019-05-01T00:29:05.793Z,15.63
2019-05-01T00:34:08.769Z,15.10
2019-05-01T00:39:13.351Z,18.30
2019-05-01T00:44:16.306Z,13.55
2019-05-01T00:49:19.351Z,14.23
2019-05-01T00:54:23.025Z,12.63
2019-05-01T00:59:45.594Z,14.60
2019-05-01T01:04:48.676Z,17.48
2019-05-01T01:09:51.864Z,13.15
2019-05-01T01:14:54.860Z,13.05
2019-05-01T01:19:57.998Z,14.58
2019-05-01T01:25:01.809Z,12.65
2019-05-01T01:30:07.069Z,11.22
2019-05-01T01:35:10.048Z,16.03
2019-05-01T01:40:13.904Z,17.87
2019-05-01T01:45:23.479Z,15.13
2019-05-01T01:50:26.678Z,13.75
2019-05-01T01:55:29.759Z,14.15
2019-05-01T02:00:49.705Z,14.93
2019-05-01T02:05:52.874Z,14.93
2019-05-01T02:10:56.114Z,16.93
2019-05-01T02:15:59.072Z,16.52
2019-05-01T02:21:02.062Z,15.53
2019-05-01T02:26:06.759Z,15.70
2019-05-01T02:31:27.435Z,16.82
2019-05-01T02:36:26.306Z,16.45
2019-05-01T02:41:35.417Z,18.07
2019-05-01T02:46:43.776Z,17.57
2019-05-01T02:51:49.413Z,18.48
2019-05-01T02:56:58.380Z,17.32
2019-05-01T03:02:03.431Z,15.08
2019-05-01T03:07:08.598Z,22.70
2019-05-01T03:12:16.576Z,22.98
2019-05-01T03:17:38.924Z,18.02
2019-05-01T03:23:02.228Z,21.00
2019-05-01T03:28:05.658Z,21.97
2019-05-01T03:33:09.116Z,18.90
2019-05-01T03:38:12.556Z,20.30
2019-05-01T03:43:16.194Z,19.43
2019-05-01T03:48:19.999Z,17.77
2019-05-01T03:53:24.625Z,18.62
2019-05-01T03:58:28.198Z,19.17
2019-05-01T04:03:35.430Z,37.90
2019-05-01T04:08:38.699Z,46.30
2019-05-01T04:13:41.898Z,49.08
2019-05-01T04:18:45.495Z,43.13
2019-05-01T04:23:49.419Z,42.13
2019-05-01T04:29:02.924Z,53.68
2019-05-01T04:34:12.817Z,55.40
2019-05-01T04:39:15.905Z,46.02
2019-05-01T04:44:19.678Z,37.70
2019-05-01T04:49:23.184Z,31.15
2019-05-01T04:54:26.834Z,34.23
2019-05-01T04:59:30.263Z,28.38
2019-05-01T05:04:33.602Z,32.75
2019-05-01T05:09:44.643Z,34.20
2019-05-01T05:14:52.577Z,34.18
2019-05-01T05:19:56.193Z,31.27
2019-05-01T05:24:59.807Z,31.02
2019-05-01T05:30:03.740Z,37.03
2019-05-01T05:35:08.627Z,48.95
2019-05-01T05:40:11.989Z,41.45
2019-05-01T05:45:14.995Z,48.20
2019-05-01T05:50:20.834Z,46.18
2019-05-01T05:55:34.398Z,43.53
2019-05-01T06:01:02.897Z,47.23
2019-05-01T06:06:30.329Z,39.20
2019-05-01T06:11:54.994Z,39.53
2019-05-01T06:17:14.553Z,40.03
2019-05-01T06:22:40.730Z,44.18
2019-05-01T06:27:44.727Z,36.47
2019-05-01T06:32:48.657Z,35.25
2019-05-01T06:38:05.763Z,33.58
2019-05-01T06:43:25.214Z,30.32
2019-05-01T06:48:28.221Z,31.73
2019-05-01T06:53:31.325Z,30.85
2019-05-01T06:58:34.619Z,30.05
2019-05-01T07:03:40.747Z,30.23
2019-05-01T07:08:42.741Z,30.82
2019-05-01T07:13:55.397Z,27.25
2019-05-01T07:19:05.721Z,33.05
2019-05-01T07:24:04.013Z,29.70
2019-05-01T07:29:11.064Z,28.77
2019-05-01T07:34:16.604Z,33.67
2019-05-01T07:39:19.587Z,26.30
2019-05-01T07:44:38.889Z,22.98
2019-05-01T07:49:57.487Z,25.97
2019-05-01T07:55:00.748Z,21.07
2019-05-01T08:00:09.286Z,15.88
2019-05-01T08:05:12.303Z,9.95
2019-05-01T08:10:15.655Z,10.60
2019-05-01T08:15:22.621Z,12.13
2019-05-01T08:20:30.207Z,11.05
2019-05-01T08:25:34.379Z,8.60
2019-05-01T08:31:03.201Z,10.40
2019-05-01T08:36:11.670Z,10.45
2019-05-01T08:41:12.995Z,9.08
2019-05-01T08:46:38.526Z,8.35
2019-05-01T08:51:41.776Z,8.20
2019-05-01T08:56:45.044Z,10.80
2019-05-01T09:01:51.906Z,9.43
2019-05-01T09:06:53.953Z,6.30
2019-05-01T09:11:57.098Z,4.42
2019-05-01T09:17:00.059Z,8.17
2019-05-01T09:22:03.233Z,6.42
2019-05-01T09:27:31.847Z,5.40
2019-05-01T09:32:35.192Z,7.08
2019-05-01T09:37:39.433Z,8.23
2019-05-01T09:42:42.433Z,6.15
2019-05-01T09:47:45.624Z,4.37
2019-05-01T09:52:59.738Z,6.58
2019-05-01T09:58:04.032Z,4.33
2019-05-01T10:03:07.685Z,5.58
2019-05-01T10:08:10.822Z,3.08
2019-05-01T10:13:17.614Z,4.57
2019-05-01T10:18:19.015Z,7.22
2019-05-01T10:23:22.068Z,5.80
2019-05-01T10:28:40.264Z,6.27
2019-05-01T10:33:46.088Z,5.22
2019-05-01T10:38:49.215Z,3.90
2019-05-01T10:43:52.238Z,5.78
2019-05-01T10:48:57.365Z,3.45
2019-05-01T10:54:00.495Z,9.75
2019-05-01T10:59:03.586Z,9.88
2019-05-01T11:04:06.807Z,8.03
2019-05-01T11:09:09.932Z,6.00
2019-05-01T11:14:13.210Z,7.72
2019-05-01T11:19:16.238Z,8.15
2019-05-01T11:24:19.434Z,3.00
2019-05-01T11:29:22.429Z,5.85
2019-05-01T11:34:50.622Z,2.95
2019-05-01T11:39:58.036Z,5.62
2019-05-01T11:45:01.015Z,2.87
2019-05-01T11:50:05.345Z,6.17
2019-05-01T11:55:08.458Z,6.78
2019-05-01T12:00:14.199Z,4.03
2019-05-01T12:05:17.268Z,5.17
2019-05-01T12:10:20.341Z,6.65
2019-05-01T12:15:23.620Z,8.15
2019-05-01T12:20:26.563Z,7.03
2019-05-01T12:25:29.603Z,5.30
2019-05-01T12:30:32.705Z,9.93
2019-05-01T12:35:35.738Z,9.38
2019-05-01T12:40:38.710Z,5.75
2019-05-01T12:45:45.057Z,7.10
2019-05-01T12:50:49.980Z,7.55
2019-05-01T12:56:15.561Z,6.08
2019-05-01T13:01:18.866Z,5.25
2019-05-01T13:06:21.959Z,8.30
2019-05-01T13:11:24.910Z,3.20
2019-05-01T13:16:28.112Z,5.50
2019-05-01T13:21:31.081Z,6.72
2019-05-01T13:26:42.194Z,5.45
2019-05-01T13:31:52.793Z,5.33
2019-05-01T13:37:02.886Z,7.25
2019-05-01T13:42:00.825Z,3.87
2019-05-01T13:47:03.845Z,4.80
2019-05-01T13:52:06.955Z,5.58
2019-05-01T13:57:10.132Z,6.90
2019-05-01T14:02:13.332Z,5.42
2019-05-01T14:07:17.094Z,4.35
2019-05-01T14:12:20.450Z,3.72
2019-05-01T14:17:23.554Z,6.72
2019-05-01T14:22:46.133Z,5.72
2019-05-01T14:27:49.107Z,5.03
2019-05-01T14:32:52.131Z,5.33
2019-05-01T14:37:55.538Z,3.12
2019-05-01T14:42:58.974Z,7.77
2019-05-01T14:48:01.975Z,5.12
2019-05-01T14:53:05.325Z,5.33
2019-05-01T14:58:08.516Z,4.50
2019-05-01T15:03:11.672Z,3.60
2019-05-01T15:08:14.638Z,3.95
2019-05-01T15:13:32.614Z,6.55
2019-05-01T15:18:50.334Z,7.87
2019-05-01T15:23:54.019Z,6.28
2019-05-01T15:28:57.143Z,3.65
2019-05-01T15:34:00.448Z,4.08
2019-05-01T15:39:08.564Z,6.53
2019-05-01T15:44:23.623Z,8.13
2019-05-01T15:49:27.239Z,5.62
2019-05-01T15:54:30.802Z,7.83
2019-05-01T15:59:33.880Z,8.33
2019-05-01T16:04:37.143Z,8.13
2019-05-01T16:09:40.313Z,6.30
2019-05-01T16:14:48.417Z,5.33
2019-05-01T16:19:51.556Z,4.58
2019-05-01T16:24:54.639Z,4.60
2019-05-01T16:29:57.851Z,7.22
2019-05-01T16:35:01.068Z,8.40
2019-05-01T16:40:12.573Z,4.60
2019-05-01T16:45:16.274Z,8.73
2019-05-01T16:50:21.928Z,7.65
2019-05-01T16:55:25.120Z,8.23
2019-05-01T17:00:59.317Z,8.70
2019-05-01T17:06:15.639Z,6.42
2019-05-01T17:11:21.626Z,6.35
2019-05-01T17:16:25.556Z,8.08
2019-05-01T17:21:28.614Z,5.55
2019-05-01T17:26:31.651Z,8.73
2019-05-01T17:31:35.039Z,6.87
2019-05-01T17:36:38.182Z,6.17
2019-05-01T17:41:41.888Z,6.22
2019-05-01T17:46:46.891Z,10.10
2019-05-01T17:51:49.962Z,11.63
2019-05-01T17:56:53.780Z,13.25
2019-05-01T18:02:11.583Z,15.28
2019-05-01T18:07:14.861Z,11.15
2019-05-01T18:12:18.176Z,10.53
2019-05-01T18:17:21.601Z,8.78
2019-05-01T18:22:59.859Z,9.00
2019-05-01T18:28:25.001Z,9.95
2019-05-01T18:33:28.160Z,8.25
2019-05-01T18:38:50.803Z,9.40
2019-05-01T18:43:53.947Z,9.78
2019-05-01T18:48:57.016Z,8.53
2019-05-01T18:54:00.299Z,8.75
2019-05-01T18:59:03.647Z,10.05
2019-05-01T19:04:06.874Z,7.42
2019-05-01T19:09:15.177Z,11.30
2019-05-01T19:14:14.851Z,9.75
2019-05-01T19:19:18.166Z,9.78
2019-05-01T19:24:21.317Z,13.03
2019-05-01T19:29:26.645Z,10.63
2019-05-01T19:34:29.556Z,11.90
2019-05-01T19:39:42.944Z,8.60
2019-05-01T19:44:37.581Z,15.20
2019-05-01T19:49:40.684Z,11.03
2019-05-01T19:54:43.741Z,11.00
2019-05-01T19:59:46.726Z,15.17
2019-05-01T20:04:50.565Z,12.85
2019-05-01T20:09:57.072Z,12.70
2019-05-01T20:14:59.743Z,13.88
2019-05-01T20:20:03.774Z,18.20
2019-05-01T20:25:06.934Z,18.95
2019-05-01T20:30:10.496Z,13.93
2019-05-01T20:35:13.597Z,12.78
2019-05-01T20:40:17.051Z,14.13
2019-05-01T20:45:20.433Z,12.73
2019-05-01T20:50:23.626Z,8.95
2019-05-01T20:55:26.600Z,13.93
2019-05-01T21:00:29.764Z,12.10
2019-05-01T21:05:39.648Z,14.98
2019-05-01T21:10:53.183Z,12.10
2019-05-01T21:16:01.122Z,13.32
2019-05-01T21:21:03.336Z,14.33
2019-05-01T21:26:06.352Z,13.20
2019-05-01T21:31:09.479Z,11.75
2019-05-01T21:36:12.603Z,12.35
2019-05-01T21:41:18.335Z,14.47
2019-05-01T21:46:22.731Z,12.93
2019-05-01T21:51:26.084Z,16.82
2019-05-01T21:56:29.172Z,12.85
2019-05-01T22:01:34.794Z,16.90
2019-05-01T22:06:37.175Z,13.85
2019-05-01T22:11:43.511Z,15.97
2019-05-01T22:16:47.219Z,12.68
2019-05-01T22:22:09.870Z,12.68
2019-05-01T22:27:20.572Z,14.73
2019-05-01T22:32:34.424Z,18.32
2019-05-01T22:37:37.484Z,19.05
2019-05-01T22:42:41.005Z,20.93
2019-05-01T22:47:46.107Z,20.23
2019-05-01T22:52:48.936Z,17.43
2019-05-01T22:57:52.454Z,15.63
2019-05-01T23:02:59.986Z,13.43
2019-05-01T23:08:02.471Z,13.45
2019-05-01T23:13:06.795Z,11.65
2019-05-01T23:18:15.361Z,14.65
2019-05-01T23:23:17.109Z,15.53
2019-05-01T23:28:20.589Z,15.65
2019-05-01T23:33:23.579Z,13.67
2019-05-01T23:38:26.716Z,12.55
2019-05-01T23:43:29.681Z,13.72
2019-05-01T23:48:32.644Z,12.15
2019-05-01T23:53:35.717Z,15.85
2019-05-01T23:58:38.776Z,16.67
